createdAt,value
2023-04-13T00:00:44.291Z,7.10
2023-04-13T00:03:17.741Z,7.07
2023-04-13T00:05:48.940Z,6.35
2023-04-13T00:08:17.245Z,6.78
2023-04-13T00:10:46.128Z,6.97
2023-04-13T00:13:12.977Z,6.97
2023-04-13T00:15:42.210Z,7.38
2023-04-13T00:20:35.949Z,6.50
2023-04-13T00:23:03.139Z,6.95
2023-04-13T00:25:30.658Z,7.38
2023-04-13T00:27:57.484Z,6.68
2023-04-13T00:30:24.188Z,7.43
2023-04-13T00:32:52.095Z,8.20
2023-04-13T00:35:25.065Z,8.15
2023-04-13T00:37:52.641Z,9.05
2023-04-13T00:40:19.429Z,8.48
2023-04-13T00:42:47.569Z,10.77
2023-04-13T00:45:14.951Z,10.15
2023-04-13T00:47:43.419Z,10.52
2023-04-13T00:50:10.450Z,9.73
2023-04-13T00:52:40.466Z,10.30
2023-04-13T00:55:07.841Z,10.70
2023-04-13T00:57:35.313Z,9.73
2023-04-13T01:00:07.104Z,9.35
2023-04-13T01:02:34.422Z,10.57
2023-04-13T01:05:02.364Z,10.45
2023-04-13T01:07:42.548Z,11.00
2023-04-13T01:10:21.400Z,9.25
2023-04-13T01:13:06.532Z,9.90
2023-04-13T01:15:37.330Z,9.60
2023-04-13T01:18:08.517Z,9.90
2023-04-13T01:20:41.234Z,10.13
2023-04-13T01:23:10.627Z,9.35
2023-04-13T01:28:10.091Z,9.73
2023-04-13T01:30:37.892Z,9.38
2023-04-13T01:33:05.912Z,8.93
2023-04-13T01:35:33.227Z,8.80
2023-04-13T01:38:00.002Z,9.27
2023-04-13T01:40:28.604Z,8.13
2023-04-13T01:42:56.132Z,8.90
2023-04-13T01:45:25.738Z,7.63
2023-04-13T01:48:12.401Z,7.85
2023-04-13T01:50:45.853Z,7.60
2023-04-13T01:53:16.268Z,7.07
2023-04-13T01:55:43.981Z,7.50
2023-04-13T01:58:13.218Z,7.53
2023-04-13T02:00:40.843Z,6.93
2023-04-13T02:03:09.725Z,7.55
2023-04-13T02:05:37.080Z,8.25
2023-04-13T02:08:07.466Z,7.50
2023-04-13T02:10:36.028Z,7.70
2023-04-13T02:13:04.161Z,7.95
2023-04-13T02:15:37.803Z,7.47
2023-04-13T02:18:05.459Z,8.85
2023-04-13T02:20:43.806Z,7.47
2023-04-13T02:23:17.947Z,8.60
2023-04-13T02:25:48.101Z,8.13
2023-04-13T02:28:18.002Z,7.53
2023-04-13T02:30:44.991Z,7.90
2023-04-13T02:33:11.681Z,8.63
2023-04-13T02:35:39.053Z,7.38
2023-04-13T02:38:06.895Z,8.48
2023-04-13T02:40:33.671Z,7.82
2023-04-13T02:43:00.308Z,7.95
2023-04-13T02:45:28.573Z,7.55
2023-04-13T02:47:55.358Z,9.05
2023-04-13T02:50:22.301Z,8.30
2023-04-13T02:52:49.090Z,9.18
2023-04-13T02:55:15.984Z,8.65
2023-04-13T02:57:43.453Z,8.80
2023-04-13T03:00:10.976Z,8.57
2023-04-13T03:02:38.496Z,8.18
2023-04-13T03:05:06.578Z,8.52
2023-04-13T03:07:34.065Z,8.00
2023-04-13T03:10:03.235Z,8.93
2023-04-13T03:12:30.338Z,8.38
2023-04-13T03:14:57.101Z,8.43
2023-04-13T03:17:23.956Z,8.48
2023-04-13T03:19:51.958Z,7.47
2023-04-13T03:22:18.647Z,7.95
2023-04-13T03:24:45.417Z,7.38
2023-04-13T03:27:12.201Z,7.60
2023-04-13T03:29:38.904Z,8.07
2023-04-13T03:32:05.690Z,7.13
2023-04-13T03:34:32.320Z,7.13
2023-04-13T03:36:59.036Z,8.77
2023-04-13T03:39:25.761Z,10.25
2023-04-13T03:41:52.460Z,9.15
2023-04-13T03:44:19.160Z,10.73
2023-04-13T03:46:46.039Z,10.73
2023-04-13T03:49:12.977Z,10.18
2023-04-13T03:51:39.642Z,11.10
2023-04-13T03:54:06.249Z,9.63
2023-04-13T03:56:33.030Z,9.55
2023-04-13T03:59:00.115Z,11.13
2023-04-13T04:01:27.421Z,7.05
2023-04-13T04:03:57.220Z,7.60
2023-04-13T04:06:24.554Z,10.07
2023-04-13T04:08:51.489Z,8.07
2023-04-13T04:11:18.213Z,6.40
2023-04-13T04:13:45.055Z,10.25
2023-04-13T04:16:11.971Z,8.50
2023-04-13T04:18:38.972Z,7.50
2023-04-13T04:21:06.975Z,7.60
2023-04-13T04:23:34.771Z,7.13
2023-04-13T04:26:03.143Z,7.45
2023-04-13T04:28:38.929Z,7.05
2023-04-13T04:31:12.020Z,6.95
2023-04-13T04:33:38.803Z,6.60
2023-04-13T04:36:10.474Z,7.25
2023-04-13T04:38:37.982Z,8.13
2023-04-13T04:41:04.881Z,9.35
2023-04-13T04:43:32.309Z,9.77
2023-04-13T04:45:59.065Z,9.27
2023-04-13T04:48:27.095Z,9.75
2023-04-13T04:50:56.215Z,10.32
2023-04-13T04:53:23.140Z,8.75
2023-04-13T04:55:50.321Z,8.95
2023-04-13T04:58:17.097Z,8.93
2023-04-13T05:00:43.831Z,8.57
2023-04-13T05:03:10.772Z,8.13
2023-04-13T05:05:37.652Z,8.05
2023-04-13T05:08:05.327Z,7.55
2023-04-13T05:10:32.004Z,8.50
2023-04-13T05:12:58.720Z,8.20
2023-04-13T05:15:26.770Z,6.55
2023-04-13T05:17:55.199Z,5.97
2023-04-13T05:20:21.958Z,6.30
2023-04-13T05:22:48.680Z,7.13
2023-04-13T05:25:15.343Z,5.95
2023-04-13T05:27:41.999Z,6.18
2023-04-13T05:30:09.798Z,5.57
2023-04-13T05:32:37.281Z,5.18
2023-04-13T05:35:04.727Z,5.25
2023-04-13T05:37:32.082Z,5.15
2023-04-13T05:39:58.910Z,4.07
2023-04-13T05:42:25.662Z,4.03
2023-04-13T05:44:52.781Z,4.40
2023-04-13T05:47:22.174Z,4.55
2023-04-13T05:49:48.879Z,4.13
2023-04-13T05:52:15.779Z,4.65
2023-04-13T05:54:42.448Z,4.38
2023-04-13T05:57:09.140Z,4.53
2023-04-13T05:59:35.772Z,5.78
2023-04-13T06:02:03.132Z,5.95
2023-04-13T06:04:31.327Z,7.32
2023-04-13T06:06:58.110Z,4.40
2023-04-13T06:09:24.830Z,4.97
2023-04-13T06:11:51.462Z,7.40
2023-04-13T06:14:18.366Z,7.85
2023-04-13T06:16:45.126Z,8.20
2023-04-13T06:19:12.833Z,11.55
2023-04-13T06:21:39.530Z,12.85
2023-04-13T06:24:06.500Z,13.45
2023-04-13T06:26:33.726Z,11.20
2023-04-13T06:29:00.664Z,11.07
2023-04-13T06:31:28.128Z,11.10
2023-04-13T06:33:55.555Z,9.85
2023-04-13T06:36:22.289Z,9.18
2023-04-13T06:38:48.940Z,9.45
2023-04-13T06:41:15.666Z,8.55
2023-04-13T06:43:42.365Z,8.70
2023-04-13T06:46:09.209Z,7.32
2023-04-13T06:48:36.088Z,7.32
2023-04-13T06:51:02.844Z,5.57
2023-04-13T06:53:29.563Z,6.40
2023-04-13T06:55:56.195Z,5.40
2023-04-13T06:58:23.473Z,4.88
2023-04-13T07:00:50.709Z,5.60
2023-04-13T07:03:17.623Z,3.83
2023-04-13T07:05:45.222Z,4.50
2023-04-13T07:08:13.124Z,5.07
2023-04-13T07:10:41.084Z,4.88
2023-04-13T07:13:07.904Z,4.47
2023-04-13T07:15:37.470Z,4.43
2023-04-13T07:18:04.931Z,5.28
2023-04-13T07:20:31.705Z,5.10
2023-04-13T07:22:58.492Z,5.25
2023-04-13T07:25:25.541Z,6.03
2023-04-13T07:27:52.242Z,5.72
2023-04-13T07:30:19.051Z,6.68
2023-04-13T07:32:45.950Z,6.05
2023-04-13T07:35:12.663Z,5.38
2023-04-13T07:37:39.350Z,5.97
2023-04-13T07:40:06.932Z,6.57
2023-04-13T07:42:33.653Z,6.60
2023-04-13T07:45:00.819Z,4.70
2023-04-13T07:47:27.552Z,5.57
2023-04-13T07:49:54.320Z,5.18
2023-04-13T07:52:21.362Z,5.45
2023-04-13T07:54:48.170Z,5.60
2023-04-13T07:57:15.061Z,5.75
2023-04-13T07:59:41.833Z,6.07
2023-04-13T08:02:08.599Z,5.53
2023-04-13T08:04:36.081Z,6.97
2023-04-13T08:07:06.094Z,6.72
2023-04-13T08:09:36.512Z,6.07
2023-04-13T08:12:03.951Z,6.10
2023-04-13T08:14:31.274Z,5.93
2023-04-13T08:16:57.984Z,5.78
2023-04-13T08:19:24.749Z,6.75
2023-04-13T08:21:52.521Z,6.00
2023-04-13T08:24:20.777Z,5.78
2023-04-13T08:26:47.470Z,4.65
2023-04-13T08:29:14.599Z,5.82
2023-04-13T08:31:41.318Z,5.20
2023-04-13T08:34:10.485Z,5.90
2023-04-13T08:36:38.558Z,4.93
2023-04-13T08:39:10.340Z,4.80
2023-04-13T08:41:41.967Z,5.45
2023-04-13T08:44:08.914Z,5.50
2023-04-13T08:46:35.749Z,4.22
2023-04-13T08:49:03.375Z,4.93
2023-04-13T08:51:32.135Z,4.15
2023-04-13T08:53:59.284Z,2.70
2023-04-13T08:56:38.401Z,3.33
2023-04-13T08:59:12.033Z,3.75
2023-04-13T09:01:39.404Z,3.63
2023-04-13T09:04:11.000Z,5.13
2023-04-13T09:06:39.967Z,4.90
2023-04-13T09:09:11.094Z,4.03
2023-04-13T09:11:38.108Z,3.97
2023-04-13T09:14:05.136Z,3.78
2023-04-13T09:16:39.209Z,3.80
2023-04-13T09:19:05.925Z,2.88
2023-04-13T09:21:43.606Z,3.60
2023-04-13T09:24:11.011Z,3.25
2023-04-13T09:26:47.935Z,3.30
2023-04-13T09:29:19.182Z,3.28
2023-04-13T09:31:47.676Z,3.40
2023-04-13T09:34:15.557Z,3.40
2023-04-13T09:36:53.374Z,2.70
2023-04-13T09:39:29.901Z,2.13
2023-04-13T09:41:58.235Z,2.22
2023-04-13T09:44:27.529Z,1.98
2023-04-13T09:47:02.134Z,1.83
2023-04-13T09:49:42.558Z,1.83
2023-04-13T09:52:25.837Z,2.03
2023-04-13T09:54:54.506Z,1.73
2023-04-13T09:57:31.812Z,2.00
2023-04-13T10:00:01.535Z,2.08
2023-04-13T10:02:29.059Z,2.03
2023-04-13T10:04:56.428Z,2.40
2023-04-13T10:07:26.850Z,1.95
2023-04-13T10:09:54.270Z,1.63
2023-04-13T10:12:21.044Z,1.60
2023-04-13T10:14:48.970Z,2.08
2023-04-13T10:17:37.613Z,2.17
2023-04-13T10:20:10.253Z,1.67
2023-04-13T10:22:37.925Z,2.90
2023-04-13T10:25:07.085Z,2.30
2023-04-13T10:27:36.538Z,1.77
2023-04-13T10:30:16.531Z,1.90
2023-04-13T10:32:43.298Z,1.55
2023-04-13T10:35:11.880Z,1.77
2023-04-13T10:37:40.564Z,2.53
2023-04-13T10:40:13.955Z,2.50
2023-04-13T10:42:51.821Z,2.08
2023-04-13T10:45:26.125Z,2.00
2023-04-13T10:47:53.973Z,1.58
2023-04-13T10:50:22.811Z,1.83
2023-04-13T10:53:01.942Z,2.15
2023-04-13T10:55:29.679Z,3.13
2023-04-13T10:57:59.433Z,2.03
2023-04-13T11:00:42.276Z,1.98
2023-04-13T11:03:15.565Z,2.60
2023-04-13T11:05:42.667Z,1.80
2023-04-13T11:08:09.706Z,1.80
2023-04-13T11:10:36.343Z,1.77
2023-04-13T11:13:03.348Z,2.30
2023-04-13T11:15:32.361Z,2.20
2023-04-13T11:18:00.914Z,2.67
2023-04-13T11:20:37.452Z,2.40
2023-04-13T11:23:06.419Z,2.50
2023-04-13T11:25:36.570Z,2.30
2023-04-13T11:28:04.037Z,2.47
2023-04-13T11:30:32.529Z,2.30
2023-04-13T11:33:01.065Z,2.80
2023-04-13T11:35:28.011Z,4.82
2023-04-13T11:37:56.099Z,2.10
2023-04-13T11:40:27.821Z,2.13
2023-04-13T11:42:56.386Z,2.08
2023-04-13T11:45:28.758Z,2.10
2023-04-13T11:47:56.592Z,1.90
2023-04-13T11:50:23.860Z,1.70
2023-04-13T11:52:56.763Z,2.00
2023-04-13T11:55:24.481Z,2.08
2023-04-13T11:57:52.988Z,2.30
2023-04-13T12:00:27.250Z,2.38
2023-04-13T12:05:30.129Z,2.55
2023-04-13T12:07:58.458Z,2.42
2023-04-13T12:10:38.376Z,1.77
2023-04-13T12:13:20.304Z,2.53
2023-04-13T12:16:05.333Z,2.20
2023-04-13T12:18:49.500Z,2.30
2023-04-13T12:21:17.835Z,2.85
2023-04-13T12:23:54.499Z,2.78
2023-04-13T12:28:57.536Z,2.38
2023-04-13T12:31:24.796Z,2.30
2023-04-13T12:33:51.727Z,2.67
2023-04-13T12:36:18.428Z,2.72
2023-04-13T12:38:45.142Z,2.85
2023-04-13T12:41:12.126Z,2.25
2023-04-13T12:43:38.766Z,4.43
2023-04-13T12:46:05.510Z,2.25
2023-04-13T12:48:32.301Z,2.00
2023-04-13T12:50:59.015Z,2.17
2023-04-13T12:53:25.752Z,1.80
2023-04-13T12:55:52.423Z,2.10
2023-04-13T12:58:19.134Z,1.83
2023-04-13T13:00:45.906Z,2.30
2023-04-13T13:03:15.094Z,2.25
2023-04-13T13:05:42.426Z,1.98
2023-04-13T13:08:09.411Z,2.35
2023-04-13T13:10:40.193Z,2.15
2023-04-13T13:13:06.988Z,1.80
2023-04-13T13:15:33.900Z,2.08
2023-04-13T13:18:04.560Z,2.20
2023-04-13T13:20:31.353Z,4.68
2023-04-13T13:22:58.299Z,2.13
2023-04-13T13:25:25.098Z,1.92
2023-04-13T13:30:21.385Z,2.00
2023-04-13T13:32:48.093Z,2.03
2023-04-13T13:35:14.878Z,2.10
2023-04-13T13:37:41.584Z,2.30
2023-04-13T13:40:13.384Z,7.68
2023-04-13T13:42:51.252Z,2.10
2023-04-13T13:45:19.979Z,1.83
2023-04-13T13:47:54.215Z,1.95
2023-04-13T13:50:21.881Z,2.45
2023-04-13T13:53:02.453Z,2.05
2023-04-13T13:55:31.036Z,2.13
2023-04-13T13:57:57.949Z,1.77
2023-04-13T14:00:27.179Z,6.07
2023-04-13T14:02:54.091Z,5.10
2023-04-13T14:05:22.237Z,2.10
2023-04-13T14:07:49.211Z,1.98
2023-04-13T14:10:16.190Z,2.35
2023-04-13T14:12:47.462Z,2.17
2023-04-13T14:15:15.794Z,2.47
2023-04-13T14:17:42.568Z,2.50
2023-04-13T14:20:10.564Z,2.33
2023-04-13T14:22:40.675Z,2.22
2023-04-13T14:25:09.472Z,2.45
2023-04-13T14:27:36.877Z,2.40
2023-04-13T14:30:04.450Z,1.95
2023-04-13T14:32:31.943Z,2.33
2023-04-13T14:35:00.122Z,2.20
2023-04-13T14:37:28.144Z,1.98
2023-04-13T14:39:55.094Z,1.52
2023-04-13T14:42:22.475Z,1.75
2023-04-13T14:44:49.107Z,2.20
2023-04-13T14:47:16.124Z,2.63
2023-04-13T14:49:43.364Z,2.25
2023-04-13T14:52:10.004Z,1.88
2023-04-13T14:54:36.803Z,1.80
2023-04-13T14:57:04.791Z,1.75
2023-04-13T14:59:31.663Z,2.25
2023-04-13T15:01:58.453Z,3.78
2023-04-13T15:04:25.340Z,2.17
2023-04-13T15:06:54.347Z,4.38
2023-04-13T15:11:49.385Z,4.65
2023-04-13T15:14:16.409Z,2.08
2023-04-13T15:16:43.258Z,1.95
2023-04-13T15:19:10.023Z,2.80
2023-04-13T15:21:36.740Z,3.15
2023-04-13T15:24:03.589Z,2.72
2023-04-13T15:26:30.478Z,2.45
2023-04-13T15:28:57.146Z,1.83
2023-04-13T15:31:23.861Z,2.30
2023-04-13T15:33:50.734Z,2.67
2023-04-13T15:36:19.071Z,2.35
2023-04-13T15:38:45.813Z,2.30
2023-04-13T15:41:12.493Z,2.03
2023-04-13T15:43:41.221Z,1.95
2023-04-13T15:46:08.991Z,2.90
2023-04-13T15:48:35.865Z,2.00
2023-04-13T15:51:02.560Z,2.65
2023-04-13T15:53:29.330Z,5.45
2023-04-13T15:55:56.025Z,3.80
2023-04-13T15:58:22.717Z,2.70
2023-04-13T16:01:07.352Z,3.95
2023-04-13T16:03:35.060Z,2.40
2023-04-13T16:06:02.630Z,2.88
2023-04-13T16:08:29.253Z,2.15
2023-04-13T16:10:55.936Z,3.92
2023-04-13T16:13:22.690Z,2.67
2023-04-13T16:15:53.696Z,1.95
2023-04-13T16:18:21.816Z,2.60
2023-04-13T16:20:58.872Z,1.63
2023-04-13T16:23:26.023Z,2.00
2023-04-13T16:25:52.765Z,2.80
2023-04-13T16:28:20.348Z,3.10
2023-04-13T16:30:47.807Z,2.13
2023-04-13T16:33:14.586Z,2.35
2023-04-13T16:35:41.393Z,3.30
2023-04-13T16:38:08.007Z,2.90
2023-04-13T16:40:34.696Z,4.97
2023-04-13T16:43:03.293Z,4.97
2023-04-13T16:45:30.035Z,4.20
2023-04-13T16:47:56.747Z,3.40
2023-04-13T16:50:28.528Z,4.63
2023-04-13T16:52:56.671Z,4.72
2023-04-13T16:55:23.499Z,4.13
2023-04-13T16:57:50.998Z,3.97
2023-04-13T17:00:18.292Z,2.47
2023-04-13T17:02:45.194Z,4.97
2023-04-13T17:05:12.782Z,4.65
2023-04-13T17:07:41.614Z,4.13
2023-04-13T17:10:09.162Z,3.28
2023-04-13T17:12:36.197Z,4.68
2023-04-13T17:15:03.059Z,2.63
2023-04-13T17:17:29.740Z,4.50
2023-04-13T17:19:56.490Z,3.55
2023-04-13T17:22:23.521Z,6.13
2023-04-13T17:24:50.275Z,6.38
2023-04-13T17:27:17.527Z,6.72
2023-04-13T17:29:44.263Z,5.03
2023-04-13T17:32:11.043Z,4.20
2023-04-13T17:34:37.970Z,5.65
2023-04-13T17:37:04.983Z,13.15
2023-04-13T17:39:32.107Z,5.95
2023-04-13T17:41:58.769Z,4.78
2023-04-13T17:44:25.457Z,7.80
2023-04-13T17:46:54.436Z,8.18
2023-04-13T17:49:22.209Z,5.30
2023-04-13T17:51:49.172Z,8.10
2023-04-13T17:54:15.958Z,4.18
2023-04-13T17:56:42.659Z,4.30
2023-04-13T17:59:13.296Z,3.63
2023-04-13T18:01:42.467Z,5.25
2023-04-13T18:06:40.474Z,5.20
2023-04-13T18:09:08.990Z,5.00
2023-04-13T18:11:35.836Z,5.22
2023-04-13T18:14:03.049Z,4.53
2023-04-13T18:16:31.834Z,3.72
2023-04-13T18:19:01.904Z,5.13
2023-04-13T18:21:28.749Z,5.70
2023-04-13T18:23:55.584Z,5.60
2023-04-13T18:26:22.829Z,12.45
2023-04-13T18:28:49.553Z,6.25
2023-04-13T18:31:16.597Z,5.78
2023-04-13T18:33:44.181Z,7.00
2023-04-13T18:36:15.630Z,5.32
2023-04-13T18:38:42.405Z,6.30
2023-04-13T18:41:09.766Z,5.13
2023-04-13T18:43:36.625Z,5.32
2023-04-13T18:46:03.368Z,5.80
2023-04-13T18:48:30.852Z,7.53
2023-04-13T18:50:57.548Z,7.38
2023-04-13T18:53:24.814Z,5.95
2023-04-13T18:55:52.455Z,6.20
2023-04-13T18:58:19.876Z,8.02
2023-04-13T19:00:47.500Z,7.72
2023-04-13T19:03:14.794Z,5.05
2023-04-13T19:05:41.658Z,11.38
2023-04-13T19:08:10.059Z,8.77
2023-04-13T19:13:03.534Z,6.43
2023-04-13T19:15:31.158Z,7.15
2023-04-13T19:17:58.683Z,10.32
2023-04-13T19:20:25.613Z,8.55
2023-04-13T19:22:52.265Z,15.05
2023-04-13T19:25:19.125Z,8.77
2023-04-13T19:27:46.559Z,9.48
2023-04-13T19:30:14.525Z,11.10
2023-04-13T19:32:43.615Z,9.80
2023-04-13T19:35:10.693Z,9.68
2023-04-13T19:37:38.382Z,8.50
2023-04-13T19:40:13.825Z,7.82
2023-04-13T19:42:44.503Z,8.98
2023-04-13T19:45:12.069Z,9.45
2023-04-13T19:47:39.865Z,8.02
2023-04-13T19:50:09.051Z,8.15
2023-04-13T19:52:35.938Z,8.32
2023-04-13T19:55:02.822Z,13.20
2023-04-13T19:57:29.638Z,10.50
2023-04-13T19:59:57.071Z,9.77
2023-04-13T20:02:24.073Z,9.27
2023-04-13T20:04:51.051Z,10.85
2023-04-13T20:07:18.061Z,10.32
2023-04-13T20:09:45.391Z,10.13
2023-04-13T20:12:12.448Z,12.52
2023-04-13T20:14:42.082Z,9.70
2023-04-13T20:17:09.493Z,10.55
2023-04-13T20:19:36.691Z,12.20
2023-04-13T20:22:04.838Z,10.80
2023-04-13T20:24:31.922Z,11.65
2023-04-13T20:26:59.090Z,13.32
2023-04-13T20:29:27.368Z,11.63
2023-04-13T20:31:54.811Z,11.00
2023-04-13T20:34:22.180Z,11.30
2023-04-13T20:36:49.069Z,10.05
2023-04-13T20:39:18.654Z,9.70
2023-04-13T20:41:55.166Z,12.07
2023-04-13T20:44:24.634Z,10.90
2023-04-13T20:49:23.120Z,12.25
2023-04-13T20:51:50.942Z,10.52
2023-04-13T20:54:17.657Z,11.70
2023-04-13T20:56:44.333Z,10.98
2023-04-13T20:59:11.243Z,11.27
2023-04-13T21:01:38.771Z,9.73
2023-04-13T21:04:05.689Z,10.80
2023-04-13T21:06:33.825Z,10.40
2023-04-13T21:09:01.102Z,11.40
2023-04-13T21:11:28.261Z,10.52
2023-04-13T21:13:54.950Z,9.48
2023-04-13T21:16:21.700Z,9.98
2023-04-13T21:18:48.458Z,10.32
2023-04-13T21:21:15.131Z,10.68
2023-04-13T21:23:41.780Z,10.80
2023-04-13T21:26:08.548Z,10.02
2023-04-13T21:28:35.216Z,12.65
2023-04-13T21:31:01.855Z,10.48
2023-04-13T21:33:28.618Z,10.40
2023-04-13T21:35:55.276Z,9.52
2023-04-13T21:38:21.918Z,11.02
2023-04-13T21:40:48.667Z,11.57
2023-04-13T21:43:15.624Z,12.00
2023-04-13T21:45:42.368Z,10.88
2023-04-13T21:48:09.038Z,10.27
2023-04-13T21:50:35.750Z,11.13
2023-04-13T21:53:02.389Z,10.15
2023-04-13T21:55:29.064Z,10.13
2023-04-13T21:57:55.680Z,9.80
2023-04-13T22:00:22.533Z,10.07
2023-04-13T22:02:51.531Z,13.38
2023-04-13T22:05:18.423Z,11.40
2023-04-13T22:07:45.181Z,11.45
2023-04-13T22:10:11.903Z,11.13
2023-04-13T22:12:38.757Z,9.95
2023-04-13T22:15:06.324Z,10.90
2023-04-13T22:17:33.119Z,9.80
2023-04-13T22:19:59.757Z,12.48
2023-04-13T22:22:27.131Z,10.80
2023-04-13T22:24:53.888Z,11.27
2023-04-13T22:27:20.685Z,13.68
2023-04-13T22:29:47.915Z,13.95
2023-04-13T22:32:15.111Z,10.73
2023-04-13T22:34:42.011Z,13.73
2023-04-13T22:37:10.470Z,18.80
2023-04-13T22:39:37.470Z,21.02
2023-04-13T22:42:04.419Z,16.70
2023-04-13T22:44:37.276Z,15.40
2023-04-13T22:47:04.647Z,16.40
2023-04-13T22:49:31.636Z,16.20
2023-04-13T22:52:00.278Z,15.65
2023-04-13T22:54:26.931Z,14.15
2023-04-13T22:56:53.838Z,14.35
2023-04-13T22:59:20.582Z,14.45
2023-04-13T23:01:47.346Z,14.05
2023-04-13T23:04:16.093Z,13.45
2023-04-13T23:06:43.194Z,14.52
2023-04-13T23:09:09.862Z,12.85
2023-04-13T23:11:36.656Z,11.95
2023-04-13T23:14:03.389Z,12.20
2023-04-13T23:16:30.157Z,10.88
2023-04-13T23:18:56.992Z,11.27
2023-04-13T23:21:23.679Z,14.73
2023-04-13T23:23:50.556Z,10.43
2023-04-13T23:26:17.296Z,9.65
2023-04-13T23:28:44.179Z,9.00
2023-04-13T23:31:11.008Z,9.68
2023-04-13T23:33:37.967Z,6.65
2023-04-13T23:36:05.119Z,8.10
2023-04-13T23:38:32.289Z,8.00
2023-04-13T23:40:59.271Z,8.70
2023-04-13T23:43:26.161Z,9.82
2023-04-13T23:45:53.379Z,7.45
2023-04-13T23:48:21.467Z,7.75
2023-04-13T23:50:48.969Z,7.47
2023-04-13T23:53:16.513Z,8.13
2023-04-13T23:55:43.254Z,7.70
2023-04-13T23:58:09.946Z,8.40
